createdAt,value
2023-03-01T00:01:29.960Z,55.00
2023-03-01T00:06:49.674Z,55.10
2023-03-01T00:09:22.509Z,55.10
2023-03-01T00:11:51.291Z,55.20
2023-03-01T00:14:21.398Z,55.20
2023-03-01T00:16:50.873Z,55.20
2023-03-01T00:19:30.478Z,55.20
2023-03-01T00:22:00.848Z,55.20
2023-03-01T00:24:31.333Z,55.30
2023-03-01T00:27:03.288Z,55.40
2023-03-01T00:29:33.974Z,55.40
2023-03-01T00:32:04.576Z,55.40
2023-03-01T00:34:40.385Z,55.50
2023-03-01T00:37:11.059Z,55.40
2023-03-01T00:39:45.027Z,55.50
2023-03-01T00:42:13.402Z,55.50
2023-03-01T00:44:43.933Z,55.60
2023-03-01T00:47:14.368Z,55.60
2023-03-01T00:49:42.843Z,55.60
2023-03-01T00:52:14.190Z,55.70
2023-03-01T00:54:45.419Z,55.70
2023-03-01T00:57:14.569Z,55.70
2023-03-01T00:59:46.497Z,55.70
2023-03-01T01:02:17.232Z,55.70
2023-03-01T01:04:52.973Z,55.70
2023-03-01T01:07:27.248Z,55.70
2023-03-01T01:09:59.160Z,55.80
2023-03-01T01:12:31.141Z,55.80
2023-03-01T01:15:02.263Z,55.80
2023-03-01T01:17:29.029Z,55.80
2023-03-01T01:19:58.124Z,55.90
2023-03-01T01:22:27.439Z,56.00
2023-03-01T01:24:59.694Z,55.90
2023-03-01T01:27:32.552Z,56.00
2023-03-01T01:30:05.386Z,55.90
2023-03-01T01:32:34.243Z,55.90
2023-03-01T01:35:03.393Z,56.00
2023-03-01T01:37:37.716Z,56.00
2023-03-01T01:40:08.887Z,56.00
2023-03-01T01:42:38.181Z,56.00
2023-03-01T01:45:31.657Z,56.10
2023-03-01T01:48:09.279Z,56.00
2023-03-01T01:50:41.733Z,56.20
2023-03-01T01:53:33.405Z,56.20
2023-03-01T01:56:14.991Z,56.10
2023-03-01T02:01:31.477Z,56.20
2023-03-01T02:04:00.498Z,56.20
2023-03-01T02:06:52.392Z,56.20
2023-03-01T02:09:24.277Z,56.20
2023-03-01T02:11:54.630Z,56.90
2023-03-01T02:14:21.422Z,56.40
2023-03-01T02:17:03.427Z,56.30
2023-03-01T02:20:11.947Z,56.30
2023-03-01T02:22:43.773Z,56.30
2023-03-01T02:25:38.986Z,56.80
2023-03-01T02:28:22.088Z,56.40
2023-03-01T02:31:14.691Z,56.40
2023-03-01T02:33:56.240Z,56.40
2023-03-01T02:36:32.722Z,56.40
2023-03-01T02:39:05.195Z,56.50
2023-03-01T02:41:39.403Z,56.50
2023-03-01T02:44:12.167Z,56.50
2023-03-01T02:46:52.488Z,56.50
2023-03-01T02:49:26.010Z,56.60
2023-03-01T02:52:29.568Z,56.70
2023-03-01T02:55:28.105Z,56.60
2023-03-01T02:57:57.491Z,56.70
2023-03-01T03:00:36.672Z,56.70
2023-03-01T03:03:08.318Z,56.70
2023-03-01T03:05:43.537Z,56.70
2023-03-01T03:08:10.528Z,56.70
2023-03-01T03:10:52.163Z,56.70
2023-03-01T03:13:22.786Z,56.80
2023-03-01T03:15:51.699Z,56.80
2023-03-01T03:18:24.310Z,56.70
2023-03-01T03:20:56.727Z,56.80
2023-03-01T03:23:28.941Z,56.70
2023-03-01T03:26:12.742Z,56.80
2023-03-01T03:28:41.788Z,56.80
2023-03-01T03:31:13.981Z,56.80
2023-03-01T03:36:29.318Z,56.80
2023-03-01T03:38:58.760Z,56.90
2023-03-01T03:41:29.663Z,56.80
2023-03-01T03:44:00.687Z,56.90
2023-03-01T03:46:31.982Z,56.80
2023-03-01T03:49:07.988Z,56.80
2023-03-01T03:51:35.942Z,56.80
2023-03-01T03:54:04.135Z,56.80
2023-03-01T03:56:35.505Z,56.90
2023-03-01T03:59:05.689Z,56.80
2023-03-01T04:01:37.345Z,56.90
2023-03-01T04:04:14.174Z,56.90
2023-03-01T04:06:45.289Z,56.80
2023-03-01T04:09:17.168Z,56.90
2023-03-01T04:11:47.376Z,56.90
2023-03-01T04:16:56.093Z,57.00
2023-03-01T04:19:26.360Z,57.00
2023-03-01T04:21:58.935Z,57.00
2023-03-01T04:24:35.621Z,56.90
2023-03-01T04:27:07.225Z,56.90
2023-03-01T04:29:34.164Z,56.90
2023-03-01T04:32:07.348Z,56.80
2023-03-01T04:34:36.478Z,56.80
2023-03-01T04:37:04.774Z,56.80
2023-03-01T04:39:36.287Z,56.80
2023-03-01T04:42:05.432Z,56.80
2023-03-01T04:44:37.150Z,56.80
2023-03-01T04:47:06.621Z,56.70
2023-03-01T04:52:23.314Z,56.70
2023-03-01T04:54:56.043Z,56.80
2023-03-01T04:57:25.564Z,56.70
2023-03-01T04:59:57.359Z,56.70
2023-03-01T05:02:25.540Z,56.70
2023-03-01T05:04:58.791Z,56.80
2023-03-01T05:07:28.292Z,56.70
2023-03-01T05:09:59.717Z,56.70
2023-03-01T05:12:30.041Z,56.70
2023-03-01T05:17:43.316Z,56.70
2023-03-01T05:20:12.248Z,56.70
2023-03-01T05:22:41.821Z,56.70
2023-03-01T05:25:13.347Z,56.70
2023-03-01T05:27:46.637Z,56.70
2023-03-01T05:30:19.029Z,56.70
2023-03-01T05:32:53.720Z,56.70
2023-03-01T05:35:31.281Z,56.70
2023-03-01T05:38:01.693Z,56.70
2023-03-01T05:40:31.183Z,56.70
2023-03-01T05:43:02.254Z,56.70
2023-03-01T05:45:32.814Z,56.70
2023-03-01T05:48:03.446Z,56.70
2023-03-01T05:50:36.591Z,56.70
2023-03-01T05:53:18.902Z,56.70
2023-03-01T05:55:51.723Z,56.70
2023-03-01T05:58:23.318Z,56.70
2023-03-01T06:00:56.197Z,56.60
2023-03-01T06:03:25.250Z,56.60
2023-03-01T06:05:59.428Z,56.70
2023-03-01T06:08:30.855Z,56.70
2023-03-01T06:11:00.116Z,56.50
2023-03-01T06:13:34.232Z,56.60
2023-03-01T06:16:11.869Z,56.60
2023-03-01T06:19:07.137Z,56.50
2023-03-01T06:21:35.969Z,56.50
2023-03-01T06:24:10.398Z,56.50
2023-03-01T06:26:39.883Z,56.50
2023-03-01T06:29:11.352Z,56.60
2023-03-01T06:31:42.932Z,56.50
2023-03-01T06:34:16.866Z,56.60
2023-03-01T06:36:50.720Z,56.60
2023-03-01T06:39:25.216Z,56.70
2023-03-01T06:42:04.173Z,56.60
2023-03-01T06:47:18.000Z,56.70
2023-03-01T06:49:48.384Z,56.70
2023-03-01T06:52:19.823Z,56.70
2023-03-01T06:54:50.343Z,56.70
2023-03-01T06:57:19.808Z,56.60
2023-03-01T06:59:50.998Z,56.70
2023-03-01T07:02:22.688Z,56.40
2023-03-01T07:04:55.951Z,56.30
2023-03-01T07:07:28.034Z,56.30
2023-03-01T07:09:59.584Z,56.10
2023-03-01T07:12:31.215Z,56.10
2023-03-01T07:15:00.470Z,56.00
2023-03-01T07:17:31.838Z,56.00
2023-03-01T07:20:00.301Z,55.90
2023-03-01T07:22:28.317Z,55.80
2023-03-01T07:24:58.014Z,55.70
2023-03-01T07:27:27.598Z,55.70
2023-03-01T07:29:59.101Z,55.60
2023-03-01T07:32:31.637Z,55.60
2023-03-01T07:35:10.018Z,55.60
2023-03-01T07:37:42.419Z,55.60
2023-03-01T07:40:17.571Z,55.70
2023-03-01T07:42:49.472Z,55.70
2023-03-01T07:45:19.386Z,55.60
2023-03-01T07:47:51.250Z,55.60
2023-03-01T07:50:23.833Z,55.70
2023-03-01T07:52:57.707Z,57.30
2023-03-01T07:55:29.425Z,58.10
2023-03-01T07:57:58.540Z,58.20
2023-03-01T08:00:28.949Z,58.00
2023-03-01T08:02:59.871Z,57.50
2023-03-01T08:05:28.115Z,56.80
2023-03-01T08:07:58.560Z,56.40
2023-03-01T08:10:29.638Z,55.80
2023-03-01T08:12:57.627Z,55.10
2023-03-01T08:15:27.616Z,54.70
2023-03-01T08:17:57.645Z,54.50
2023-03-01T08:20:29.380Z,54.20
2023-03-01T08:23:03.037Z,54.00
2023-03-01T08:25:35.046Z,53.60
2023-03-01T08:28:05.309Z,53.50
2023-03-01T08:30:36.341Z,53.30
2023-03-01T08:33:08.867Z,53.10
2023-03-01T08:35:39.138Z,52.70
2023-03-01T08:38:12.410Z,52.00
2023-03-01T08:40:45.261Z,51.70
2023-03-01T08:43:16.569Z,51.50
2023-03-01T08:45:48.008Z,51.10
2023-03-01T08:48:18.030Z,50.90
2023-03-01T08:50:50.238Z,50.70
2023-03-01T08:53:19.712Z,50.20
2023-03-01T08:56:00.224Z,50.00
2023-03-01T08:58:29.618Z,49.70
2023-03-01T09:01:01.896Z,49.30
2023-03-01T09:03:28.939Z,49.60
2023-03-01T09:06:04.889Z,49.00
2023-03-01T09:08:40.835Z,46.90
2023-03-01T09:11:10.197Z,45.10
2023-03-01T09:13:44.220Z,46.70
2023-03-01T09:16:21.448Z,47.70
2023-03-01T09:18:55.215Z,48.20
2023-03-01T09:21:39.807Z,48.20
2023-03-01T09:24:15.568Z,48.40
2023-03-01T09:26:50.700Z,48.00
2023-03-01T09:29:22.858Z,48.70
2023-03-01T09:32:04.133Z,48.70
2023-03-01T09:34:34.945Z,48.80
2023-03-01T09:37:07.828Z,49.00
2023-03-01T09:39:38.158Z,48.90
2023-03-01T09:42:09.556Z,48.80
2023-03-01T09:44:52.829Z,49.20
2023-03-01T09:47:42.129Z,49.60
2023-03-01T09:50:23.787Z,50.40
2023-03-01T09:53:18.773Z,50.30
2023-03-01T09:56:12.237Z,50.30
2023-03-01T09:59:16.603Z,50.50
2023-03-01T10:02:00.793Z,50.70
2023-03-01T10:04:58.350Z,51.10
2023-03-01T10:07:56.373Z,50.90
2023-03-01T10:10:29.891Z,51.10
2023-03-01T10:13:00.590Z,51.20
2023-03-01T10:15:46.394Z,51.20
2023-03-01T10:18:25.479Z,51.20
2023-03-01T10:21:27.087Z,51.60
2023-03-01T10:23:55.744Z,51.10
2023-03-01T10:27:07.147Z,51.50
2023-03-01T10:29:53.917Z,51.30
2023-03-01T10:32:25.013Z,51.60
2023-03-01T10:34:56.068Z,52.20
2023-03-01T10:37:29.782Z,51.90
2023-03-01T10:40:13.696Z,51.70
2023-03-01T10:42:52.996Z,51.90
2023-03-01T10:45:44.495Z,52.90
2023-03-01T10:48:29.391Z,52.70
2023-03-01T10:51:14.928Z,52.20
2023-03-01T10:57:03.232Z,51.50
2023-03-01T10:59:35.921Z,51.10
2023-03-01T11:02:26.044Z,50.80
2023-03-01T11:05:33.629Z,50.40
2023-03-01T11:08:08.941Z,50.00
2023-03-01T11:10:38.914Z,49.60
2023-03-01T11:13:19.156Z,49.10
2023-03-01T11:16:09.915Z,48.80
2023-03-01T11:18:48.145Z,48.50
2023-03-01T11:21:20.360Z,48.10
2023-03-01T11:23:54.482Z,47.80
2023-03-01T11:26:26.817Z,47.50
2023-03-01T11:29:08.642Z,46.90
2023-03-01T11:31:46.563Z,47.00
2023-03-01T11:34:48.872Z,46.70
2023-03-01T11:38:06.632Z,46.60
2023-03-01T11:41:12.406Z,46.90
2023-03-01T11:43:59.172Z,46.90
2023-03-01T11:46:51.261Z,47.20
2023-03-01T11:49:41.197Z,47.40
2023-03-01T11:52:53.860Z,47.50
2023-03-01T11:55:46.988Z,47.60
2023-03-01T11:58:39.457Z,47.80
2023-03-01T12:01:19.163Z,48.00
2023-03-01T12:04:27.992Z,48.60
2023-03-01T12:07:45.807Z,49.20
2023-03-01T12:10:44.337Z,50.00
2023-03-01T12:13:47.118Z,50.40
2023-03-01T12:16:39.429Z,50.10
2023-03-01T12:19:37.148Z,50.90
2023-03-01T12:22:42.421Z,50.70
2023-03-01T12:25:32.652Z,51.00
2023-03-01T12:28:35.555Z,51.10
2023-03-01T12:31:25.209Z,50.90
2023-03-01T12:34:37.339Z,50.90
2023-03-01T12:37:28.404Z,50.90
2023-03-01T12:40:24.806Z,50.80
2023-03-01T12:43:20.352Z,51.20
2023-03-01T12:46:26.794Z,50.90
2023-03-01T12:49:17.056Z,51.50
2023-03-01T12:52:02.685Z,50.90
2023-03-01T12:54:41.590Z,50.80
2023-03-01T12:57:48.693Z,51.80
2023-03-01T13:00:59.574Z,51.70
2023-03-01T13:03:54.691Z,51.90
2023-03-01T13:06:55.183Z,51.60
2023-03-01T13:10:05.615Z,51.90
2023-03-01T13:13:00.918Z,51.60
2023-03-01T13:15:46.003Z,51.90
2023-03-01T13:18:28.957Z,51.20
2023-03-01T13:21:01.447Z,51.30
2023-03-01T13:23:36.320Z,51.40
2023-03-01T13:26:21.369Z,51.50
2023-03-01T13:29:00.095Z,51.80
2023-03-01T13:31:34.254Z,51.60
2023-03-01T13:34:09.133Z,51.60
2023-03-01T13:36:36.962Z,51.40
2023-03-01T13:39:30.657Z,52.10
2023-03-01T13:42:03.863Z,51.60
2023-03-01T13:44:39.767Z,51.60
2023-03-01T13:47:22.076Z,51.30
2023-03-01T13:50:01.831Z,51.90
2023-03-01T13:52:51.744Z,51.80
2023-03-01T13:55:49.834Z,51.90
2023-03-01T13:58:53.015Z,52.30
2023-03-01T14:01:43.739Z,51.80
2023-03-01T14:04:45.365Z,52.10
2023-03-01T14:07:47.323Z,52.20
2023-03-01T14:10:15.669Z,52.40
2023-03-01T14:13:16.529Z,52.30
2023-03-01T14:16:11.242Z,52.40
2023-03-01T14:18:54.896Z,52.20
2023-03-01T14:21:29.499Z,52.50
2023-03-01T14:23:59.842Z,52.10
2023-03-01T14:26:28.286Z,52.60
2023-03-01T14:28:59.436Z,52.40
2023-03-01T14:31:52.446Z,52.00
2023-03-01T14:37:36.090Z,53.20
2023-03-01T14:42:50.526Z,53.60
2023-03-01T14:45:20.000Z,53.70
2023-03-01T14:47:50.065Z,53.80
2023-03-01T14:50:36.481Z,53.40
2023-03-01T14:53:10.901Z,53.80
2023-03-01T14:55:42.156Z,53.60
2023-03-01T14:58:22.405Z,53.90
2023-03-01T15:01:12.949Z,54.00
2023-03-01T15:03:50.485Z,53.50
2023-03-01T15:06:23.914Z,53.50
2023-03-01T15:08:58.230Z,53.20
2023-03-01T15:11:31.295Z,52.70
2023-03-01T15:14:02.756Z,52.20
2023-03-01T15:16:33.149Z,52.00
2023-03-01T15:19:07.276Z,51.50
2023-03-01T15:21:50.508Z,51.20
2023-03-01T15:24:31.910Z,50.70
2023-03-01T15:27:08.123Z,50.50
2023-03-01T15:29:49.495Z,50.30
2023-03-01T15:32:55.731Z,50.10
2023-03-01T15:35:45.408Z,50.00
2023-03-01T15:38:57.811Z,49.70
2023-03-01T15:41:37.193Z,49.70
2023-03-01T15:44:48.243Z,49.40
2023-03-01T15:47:29.609Z,49.20
2023-03-01T15:50:02.157Z,49.20
2023-03-01T15:52:47.823Z,49.20
2023-03-01T15:55:39.754Z,49.00
2023-03-01T15:58:25.486Z,49.20
2023-03-01T16:01:01.900Z,48.70
2023-03-01T16:03:34.299Z,48.60
2023-03-01T16:06:07.423Z,48.40
2023-03-01T16:08:36.435Z,48.40
2023-03-01T16:11:09.483Z,48.00
2023-03-01T16:13:38.362Z,48.00
2023-03-01T16:16:06.856Z,48.30
2023-03-01T16:18:36.088Z,48.40
2023-03-01T16:21:04.057Z,48.10
2023-03-01T16:23:36.986Z,48.70
2023-03-01T16:26:11.392Z,48.70
2023-03-01T16:28:45.214Z,48.80
2023-03-01T16:31:20.064Z,49.10
2023-03-01T16:33:54.560Z,48.90
2023-03-01T16:36:30.029Z,48.90
2023-03-01T16:39:14.848Z,47.50
2023-03-01T16:41:45.411Z,49.40
2023-03-01T16:44:16.081Z,49.60
2023-03-01T16:46:50.383Z,50.20
2023-03-01T16:49:21.948Z,50.90
2023-03-01T16:51:54.133Z,51.40
2023-03-01T16:54:23.149Z,51.70
2023-03-01T16:56:51.167Z,52.30
2023-03-01T16:59:23.487Z,52.60
2023-03-01T17:01:51.484Z,52.90
2023-03-01T17:04:22.143Z,53.20
2023-03-01T17:06:54.004Z,53.10
2023-03-01T17:09:25.494Z,52.80
2023-03-01T17:11:56.244Z,53.40
2023-03-01T17:14:24.259Z,53.30
2023-03-01T17:16:54.671Z,54.00
2023-03-01T17:19:23.698Z,54.00
2023-03-01T17:21:52.201Z,54.10
2023-03-01T17:24:22.391Z,54.00
2023-03-01T17:26:53.940Z,54.40
2023-03-01T17:29:28.055Z,54.30
2023-03-01T17:31:59.047Z,54.20
2023-03-01T17:34:36.378Z,54.30
2023-03-01T17:37:06.894Z,54.20
2023-03-01T17:42:17.602Z,54.20
2023-03-01T17:44:48.697Z,54.20
2023-03-01T17:47:17.537Z,54.50
2023-03-01T17:49:47.927Z,54.50
2023-03-01T17:52:23.717Z,54.50
2023-03-01T17:54:53.527Z,54.60
2023-03-01T17:57:24.055Z,54.50
2023-03-01T17:59:56.138Z,54.50
2023-03-01T18:02:27.443Z,54.40
2023-03-01T18:07:44.185Z,54.30
2023-03-01T18:10:15.136Z,54.50
2023-03-01T18:12:47.574Z,54.40
2023-03-01T18:15:20.055Z,54.40
2023-03-01T18:17:50.370Z,54.40
2023-03-01T18:20:24.388Z,54.10
2023-03-01T18:22:58.841Z,54.20
2023-03-01T18:25:33.616Z,54.70
2023-03-01T18:28:04.024Z,54.90
2023-03-01T18:30:37.156Z,54.40
2023-03-01T18:33:07.543Z,54.20
2023-03-01T18:38:27.979Z,54.40
2023-03-01T18:41:01.331Z,54.50
2023-03-01T18:43:35.418Z,54.20
2023-03-01T18:46:05.372Z,54.10
2023-03-01T18:48:38.681Z,54.00
2023-03-01T18:51:18.794Z,54.00
2023-03-01T18:53:50.708Z,54.00
2023-03-01T18:56:20.911Z,54.00
2023-03-01T18:58:50.925Z,54.10
2023-03-01T19:01:27.638Z,54.20
2023-03-01T19:03:59.456Z,54.10
2023-03-01T19:06:35.676Z,54.10
2023-03-01T19:09:10.585Z,54.30
2023-03-01T19:11:40.702Z,54.20
2023-03-01T19:14:12.401Z,54.20
2023-03-01T19:16:44.044Z,54.20
2023-03-01T19:19:17.410Z,54.20
2023-03-01T19:21:59.502Z,54.10
2023-03-01T19:24:34.455Z,54.20
2023-03-01T19:27:03.502Z,54.30
2023-03-01T19:29:31.620Z,54.30
2023-03-01T19:32:04.889Z,54.20
2023-03-01T19:34:32.887Z,54.20
2023-03-01T19:37:04.558Z,54.20
2023-03-01T19:39:35.462Z,54.20
2023-03-01T19:42:04.521Z,54.20
2023-03-01T19:44:35.593Z,54.20
2023-03-01T19:47:05.377Z,54.30
2023-03-01T19:49:41.944Z,54.20
2023-03-01T19:52:13.198Z,54.20
2023-03-01T19:54:42.396Z,54.30
2023-03-01T19:57:16.306Z,54.40
2023-03-01T19:59:48.092Z,54.40
2023-03-01T20:02:17.810Z,54.40
2023-03-01T20:07:30.602Z,54.30
2023-03-01T20:10:02.262Z,54.30
2023-03-01T20:12:32.841Z,54.20
2023-03-01T20:15:03.306Z,54.30
2023-03-01T20:17:34.770Z,54.30
2023-03-01T20:20:08.416Z,54.30
2023-03-01T20:22:40.040Z,54.40
2023-03-01T20:25:12.935Z,55.10
2023-03-01T20:27:50.271Z,55.60
2023-03-01T20:30:20.362Z,55.70
2023-03-01T20:32:50.838Z,55.60
2023-03-01T20:35:21.691Z,55.50
2023-03-01T20:37:54.865Z,55.40
2023-03-01T20:40:28.102Z,55.20
2023-03-01T20:42:58.188Z,55.20
2023-03-01T20:45:28.411Z,55.00
2023-03-01T20:47:58.628Z,55.40
2023-03-01T20:53:14.111Z,54.50
2023-03-01T20:55:41.485Z,54.40
2023-03-01T20:58:09.498Z,54.30
2023-03-01T21:00:40.598Z,54.00
2023-03-01T21:03:10.296Z,53.90
2023-03-01T21:05:41.541Z,53.70
2023-03-01T21:08:11.370Z,53.70
2023-03-01T21:10:41.093Z,54.20
2023-03-01T21:13:12.468Z,53.90
2023-03-01T21:15:42.519Z,53.90
2023-03-01T21:18:10.532Z,53.80
2023-03-01T21:20:46.231Z,53.70
2023-03-01T21:23:43.496Z,53.60
2023-03-01T21:26:23.962Z,53.70
2023-03-01T21:29:01.304Z,53.80
2023-03-01T21:31:43.161Z,53.90
2023-03-01T21:34:13.076Z,53.80
2023-03-01T21:36:56.459Z,53.80
2023-03-01T21:39:31.698Z,53.90
2023-03-01T21:42:13.226Z,54.00
2023-03-01T21:44:41.785Z,54.00
2023-03-01T21:47:15.101Z,53.90
2023-03-01T21:49:46.545Z,54.00
2023-03-01T21:52:21.041Z,54.00
2023-03-01T21:54:54.459Z,53.90
2023-03-01T21:57:29.246Z,53.90
2023-03-01T21:59:58.623Z,53.90
2023-03-01T22:02:30.208Z,53.90
2023-03-01T22:05:06.180Z,53.90
2023-03-01T22:07:37.627Z,54.00
2023-03-01T22:10:09.209Z,54.00
2023-03-01T22:12:40.579Z,54.10
2023-03-01T22:15:10.117Z,54.10
2023-03-01T22:17:41.097Z,54.10
2023-03-01T22:20:15.381Z,54.20
2023-03-01T22:22:44.363Z,54.20
2023-03-01T22:25:14.764Z,54.30
2023-03-01T22:27:45.419Z,54.30
2023-03-01T22:30:17.831Z,54.30
2023-03-01T22:35:30.334Z,54.40
2023-03-01T22:38:00.299Z,54.50
2023-03-01T22:40:31.786Z,54.50
2023-03-01T22:43:00.385Z,54.50
2023-03-01T22:45:34.892Z,54.50
2023-03-01T22:48:06.950Z,54.60
2023-03-01T22:50:37.958Z,55.00
2023-03-01T22:53:06.173Z,54.60
2023-03-01T22:55:37.449Z,54.70
2023-03-01T22:58:09.414Z,54.70
2023-03-01T23:00:39.192Z,54.80
2023-03-01T23:03:10.769Z,54.90
2023-03-01T23:05:42.133Z,54.90
2023-03-01T23:08:16.867Z,55.00
2023-03-01T23:10:45.959Z,55.00
2023-03-01T23:13:15.302Z,55.00
2023-03-01T23:15:52.327Z,55.00
2023-03-01T23:18:22.477Z,55.00
2023-03-01T23:20:52.024Z,55.10
2023-03-01T23:23:22.187Z,55.20
2023-03-01T23:26:05.351Z,55.20
2023-03-01T23:28:44.206Z,55.20
2023-03-01T23:31:16.884Z,55.30
2023-03-01T23:33:50.816Z,55.30
2023-03-01T23:36:28.536Z,55.30
2023-03-01T23:39:07.642Z,55.30
2023-03-01T23:41:36.974Z,55.40
2023-03-01T23:44:08.800Z,55.50
2023-03-01T23:46:40.156Z,55.40
2023-03-01T23:49:13.163Z,55.50
2023-03-01T23:51:47.895Z,55.50
2023-03-01T23:54:21.773Z,55.40
2023-03-01T23:56:53.400Z,55.50
